createdAt,value
2023-05-10T00:00:11.654Z,0
2023-05-10T00:01:11.646Z,0
2023-05-10T00:02:11.676Z,0
2023-05-10T00:03:11.716Z,0
2023-05-10T00:04:11.675Z,0
2023-05-10T00:05:11.682Z,0
2023-05-10T00:06:11.655Z,0
2023-05-10T00:07:11.658Z,0
2023-05-10T00:08:11.658Z,0
2023-05-10T00:09:11.665Z,0
2023-05-10T00:10:11.659Z,0
2023-05-10T00:11:11.665Z,0
2023-05-10T00:12:11.663Z,0
2023-05-10T00:13:11.693Z,0
2023-05-10T00:14:11.655Z,0
2023-05-10T00:15:11.669Z,0
2023-05-10T00:16:11.677Z,0
2023-05-10T00:17:11.663Z,0
2023-05-10T00:18:11.665Z,0
2023-05-10T00:19:11.661Z,0
2023-05-10T00:20:11.664Z,0
2023-05-10T00:21:11.697Z,0
2023-05-10T00:22:11.667Z,0
2023-05-10T00:23:11.669Z,0
2023-05-10T00:24:11.674Z,0
2023-05-10T00:25:11.683Z,0
2023-05-10T00:26:11.682Z,0
2023-05-10T00:27:11.670Z,0
2023-05-10T00:28:11.686Z,0
2023-05-10T00:29:11.674Z,0
2023-05-10T00:30:11.686Z,0
2023-05-10T00:31:11.671Z,0
2023-05-10T00:32:11.719Z,0
2023-05-10T00:33:11.678Z,0
2023-05-10T00:34:11.673Z,0
2023-05-10T00:35:11.684Z,0
2023-05-10T00:36:11.678Z,0
2023-05-10T00:37:11.706Z,0
2023-05-10T00:38:11.680Z,0
2023-05-10T00:39:11.684Z,0
2023-05-10T00:40:11.686Z,0
2023-05-10T00:41:11.691Z,0
2023-05-10T00:42:11.687Z,0
2023-05-10T00:43:11.697Z,0
2023-05-10T00:44:11.697Z,0
2023-05-10T00:45:11.696Z,0
2023-05-10T00:46:11.726Z,0
2023-05-10T00:47:11.695Z,0
2023-05-10T00:48:11.697Z,0
2023-05-10T00:49:11.702Z,0
2023-05-10T00:50:11.698Z,0
2023-05-10T00:51:11.704Z,0
2023-05-10T00:52:11.701Z,0
2023-05-10T00:53:11.741Z,0
2023-05-10T00:54:11.704Z,0
2023-05-10T00:55:11.700Z,0
2023-05-10T00:56:11.703Z,0
2023-05-10T00:57:11.700Z,0
2023-05-10T00:58:11.704Z,0
2023-05-10T00:59:11.705Z,0
2023-05-10T01:00:11.712Z,0
2023-05-10T01:01:11.792Z,0
2023-05-10T01:02:11.721Z,0
2023-05-10T01:03:11.785Z,0
2023-05-10T01:04:11.715Z,0
2023-05-10T01:05:11.753Z,0
2023-05-10T01:06:11.712Z,0
2023-05-10T01:07:11.733Z,0
2023-05-10T01:08:11.721Z,0
2023-05-10T01:09:11.744Z,0
2023-05-10T01:10:11.721Z,0
2023-05-10T01:11:11.724Z,0
2023-05-10T01:12:11.756Z,0
2023-05-10T01:13:11.775Z,0
2023-05-10T01:14:11.726Z,0
2023-05-10T01:15:11.725Z,0
2023-05-10T01:16:11.830Z,0
2023-05-10T01:17:11.727Z,0
2023-05-10T01:18:11.730Z,0
2023-05-10T01:19:11.732Z,0
2023-05-10T01:20:11.744Z,0
2023-05-10T01:21:11.733Z,0
2023-05-10T01:22:11.735Z,0
2023-05-10T01:23:11.753Z,0
2023-05-10T01:24:11.742Z,0
2023-05-10T01:25:11.768Z,0
2023-05-10T01:26:11.741Z,0
2023-05-10T01:27:11.742Z,0
2023-05-10T01:28:11.737Z,0
2023-05-10T01:29:11.744Z,0
2023-05-10T01:30:15.772Z,0
2023-05-10T01:31:11.807Z,0
2023-05-10T01:32:11.748Z,0
2023-05-10T01:33:11.759Z,0
2023-05-10T01:34:11.752Z,0
2023-05-10T01:35:11.751Z,0
2023-05-10T01:36:11.752Z,0
2023-05-10T01:37:11.755Z,0
2023-05-10T01:38:11.760Z,0
2023-05-10T01:39:11.749Z,0
2023-05-10T01:40:11.754Z,0
2023-05-10T01:41:11.776Z,0
2023-05-10T01:42:11.751Z,0
2023-05-10T01:43:11.749Z,0
2023-05-10T01:44:11.751Z,0
2023-05-10T01:45:11.750Z,0
2023-05-10T01:46:11.910Z,0
2023-05-10T01:47:11.766Z,0
2023-05-10T01:48:11.859Z,0
2023-05-10T01:49:11.754Z,0
2023-05-10T01:50:11.757Z,0
2023-05-10T01:51:11.755Z,0
2023-05-10T01:52:11.762Z,0
2023-05-10T01:53:11.757Z,0
2023-05-10T01:54:11.755Z,0
2023-05-10T01:55:11.767Z,0
2023-05-10T01:56:11.762Z,0
2023-05-10T01:57:11.785Z,0
2023-05-10T01:58:11.765Z,0
2023-05-10T01:59:11.765Z,0
2023-05-10T02:00:11.763Z,0
2023-05-10T02:01:11.777Z,0
2023-05-10T02:02:11.762Z,0
2023-05-10T02:03:11.806Z,0
2023-05-10T02:04:11.788Z,0
2023-05-10T02:05:11.771Z,0
2023-05-10T02:06:11.795Z,0
2023-05-10T02:07:11.767Z,0
2023-05-10T02:08:11.768Z,0
2023-05-10T02:09:11.767Z,0
2023-05-10T02:10:11.773Z,0
2023-05-10T02:11:11.770Z,0
2023-05-10T02:12:11.770Z,0
2023-05-10T02:13:11.813Z,0
2023-05-10T02:14:11.772Z,0
2023-05-10T02:15:11.775Z,0
2023-05-10T02:16:11.802Z,0
2023-05-10T02:17:11.772Z,0
2023-05-10T02:18:11.775Z,0
2023-05-10T02:19:11.775Z,0
2023-05-10T02:20:11.798Z,0
2023-05-10T02:21:11.778Z,0
2023-05-10T02:22:11.779Z,0
2023-05-10T02:23:11.775Z,0
2023-05-10T02:24:11.785Z,0
2023-05-10T02:25:11.782Z,0
2023-05-10T02:26:11.781Z,0
2023-05-10T02:27:11.784Z,0
2023-05-10T02:28:11.782Z,0
2023-05-10T02:29:11.812Z,0
2023-05-10T02:30:11.781Z,0
2023-05-10T02:31:11.789Z,0
2023-05-10T02:32:11.889Z,0
2023-05-10T02:33:11.787Z,0
2023-05-10T02:34:11.789Z,0
2023-05-10T02:35:11.784Z,0
2023-05-10T02:36:11.792Z,0
2023-05-10T02:37:11.786Z,0
2023-05-10T02:38:11.800Z,0
2023-05-10T02:39:11.786Z,0
2023-05-10T02:40:11.790Z,0
2023-05-10T02:41:11.791Z,0
2023-05-10T02:42:11.789Z,0
2023-05-10T02:43:11.790Z,0
2023-05-10T02:44:11.789Z,0
2023-05-10T02:45:11.858Z,0
2023-05-10T02:46:11.813Z,0
2023-05-10T02:47:11.787Z,0
2023-05-10T02:48:11.824Z,0
2023-05-10T02:49:11.790Z,0
2023-05-10T02:50:11.789Z,0
2023-05-10T02:51:11.795Z,0
2023-05-10T02:52:11.799Z,0
2023-05-10T02:53:11.790Z,0
2023-05-10T02:54:11.793Z,0
2023-05-10T02:55:11.793Z,0
2023-05-10T02:56:11.796Z,0
2023-05-10T02:57:11.796Z,0
2023-05-10T02:58:11.790Z,0
2023-05-10T02:59:11.794Z,0
2023-05-10T03:00:11.798Z,0
2023-05-10T03:01:11.851Z,0
2023-05-10T03:02:11.790Z,0
2023-05-10T03:03:11.792Z,0
2023-05-10T03:04:11.817Z,0
2023-05-10T03:05:11.795Z,0
2023-05-10T03:06:11.795Z,0
2023-05-10T03:07:11.799Z,0
2023-05-10T03:08:11.795Z,0
2023-05-10T03:09:11.795Z,0
2023-05-10T03:10:11.793Z,0
2023-05-10T03:11:11.800Z,0
2023-05-10T03:12:11.799Z,0
2023-05-10T03:13:11.825Z,0
2023-05-10T03:14:11.797Z,0
2023-05-10T03:15:11.793Z,0
2023-05-10T03:16:11.845Z,0
2023-05-10T03:17:11.822Z,0
2023-05-10T03:18:11.796Z,0
2023-05-10T03:19:11.800Z,0
2023-05-10T03:20:11.809Z,0
2023-05-10T03:21:11.803Z,0
2023-05-10T03:22:11.810Z,0
2023-05-10T03:23:11.805Z,0
2023-05-10T03:24:11.812Z,0
2023-05-10T03:25:11.826Z,0
2023-05-10T03:26:11.812Z,0
2023-05-10T03:27:11.827Z,0
2023-05-10T03:28:11.835Z,0
2023-05-10T03:29:11.818Z,0
2023-05-10T03:30:11.816Z,0
2023-05-10T03:31:11.867Z,1
2023-05-10T03:32:11.822Z,1
2023-05-10T03:33:11.849Z,1
2023-05-10T03:34:11.816Z,1
2023-05-10T03:35:11.834Z,1
2023-05-10T03:36:11.819Z,3
2023-05-10T03:37:11.826Z,3
2023-05-10T03:38:11.823Z,3
2023-05-10T03:39:11.822Z,3
2023-05-10T03:40:11.828Z,3
2023-05-10T03:41:11.828Z,5
2023-05-10T03:42:11.829Z,5
2023-05-10T03:43:11.831Z,5
2023-05-10T03:44:11.828Z,5
2023-05-10T03:45:11.830Z,5
2023-05-10T03:46:11.908Z,7
2023-05-10T03:47:11.833Z,7
2023-05-10T03:48:11.897Z,7
2023-05-10T03:49:11.864Z,7
2023-05-10T03:50:11.840Z,7
2023-05-10T03:51:11.833Z,8
2023-05-10T03:52:11.835Z,8
2023-05-10T03:53:11.843Z,8
2023-05-10T03:54:11.840Z,8
2023-05-10T03:55:11.846Z,8
2023-05-10T03:56:11.843Z,9
2023-05-10T03:57:11.844Z,9
2023-05-10T03:58:11.843Z,9
2023-05-10T03:59:11.845Z,9
2023-05-10T04:00:11.848Z,9
2023-05-10T04:01:11.846Z,13
2023-05-10T04:02:11.893Z,13
2023-05-10T04:03:11.939Z,13
2023-05-10T04:04:11.925Z,13
2023-05-10T04:05:11.891Z,13
2023-05-10T04:06:11.911Z,17
2023-05-10T04:07:11.867Z,17
2023-05-10T04:08:11.865Z,17
2023-05-10T04:09:11.855Z,17
2023-05-10T04:10:11.853Z,17
2023-05-10T04:11:11.862Z,22
2023-05-10T04:12:11.868Z,22
2023-05-10T04:13:11.891Z,22
2023-05-10T04:14:11.866Z,22
2023-05-10T04:15:11.864Z,22
2023-05-10T04:16:11.866Z,29
2023-05-10T04:17:11.971Z,29
2023-05-10T04:18:11.885Z,29
2023-05-10T04:19:11.871Z,29
2023-05-10T04:20:11.867Z,29
2023-05-10T04:21:11.893Z,33
2023-05-10T04:22:11.873Z,33
2023-05-10T04:23:11.875Z,33
2023-05-10T04:24:13.082Z,33
2023-05-10T04:25:11.877Z,33
2023-05-10T04:26:11.877Z,37
2023-05-10T04:27:11.879Z,37
2023-05-10T04:28:11.881Z,37
2023-05-10T04:29:11.880Z,37
2023-05-10T04:30:11.887Z,37
2023-05-10T04:31:11.931Z,45
2023-05-10T04:32:11.882Z,45
2023-05-10T04:33:11.881Z,45
2023-05-10T04:34:11.882Z,45
2023-05-10T04:35:11.882Z,45
2023-05-10T04:36:11.896Z,54
2023-05-10T04:37:11.918Z,54
2023-05-10T04:38:11.887Z,54
2023-05-10T04:39:11.884Z,54
2023-05-10T04:40:11.895Z,54
2023-05-10T04:41:11.893Z,63
2023-05-10T04:42:11.894Z,63
2023-05-10T04:43:11.896Z,63
2023-05-10T04:44:11.901Z,63
2023-05-10T04:45:11.891Z,63
2023-05-10T04:46:11.942Z,75
2023-05-10T04:47:12.753Z,75
2023-05-10T04:48:11.902Z,75
2023-05-10T04:49:11.909Z,75
2023-05-10T04:50:11.914Z,75
2023-05-10T04:51:11.902Z,88
2023-05-10T04:52:11.906Z,88
2023-05-10T04:53:12.225Z,88
2023-05-10T04:54:11.917Z,88
2023-05-10T04:55:11.915Z,88
2023-05-10T04:56:11.909Z,114
2023-05-10T04:57:11.911Z,114
2023-05-10T04:58:11.912Z,114
2023-05-10T04:59:11.916Z,114
2023-05-10T05:00:11.916Z,114
2023-05-10T05:01:11.936Z,158
2023-05-10T05:02:11.931Z,158
2023-05-10T05:03:11.957Z,158
2023-05-10T05:04:11.918Z,158
2023-05-10T05:05:11.925Z,158
2023-05-10T05:06:11.923Z,203
2023-05-10T05:07:11.926Z,203
2023-05-10T05:08:11.929Z,203
2023-05-10T05:09:11.953Z,203
2023-05-10T05:10:11.945Z,203
2023-05-10T05:11:11.928Z,252
2023-05-10T05:12:11.930Z,252
2023-05-10T05:13:11.933Z,252
2023-05-10T05:14:11.937Z,252
2023-05-10T05:15:11.960Z,252
2023-05-10T05:16:12.018Z,293
2023-05-10T05:17:11.941Z,293
2023-05-10T05:18:11.981Z,293
2023-05-10T05:19:11.941Z,293
2023-05-10T05:20:11.938Z,293
2023-05-10T05:21:11.944Z,332
2023-05-10T05:22:11.954Z,332
2023-05-10T05:23:11.945Z,332
2023-05-10T05:24:11.949Z,332
2023-05-10T05:25:11.983Z,332
2023-05-10T05:26:11.948Z,341
2023-05-10T05:27:11.952Z,341
2023-05-10T05:28:11.952Z,341
2023-05-10T05:29:11.958Z,341
2023-05-10T05:30:11.958Z,341
2023-05-10T05:31:11.967Z,302
2023-05-10T05:32:11.968Z,302
2023-05-10T05:33:11.961Z,302
2023-05-10T05:34:11.957Z,302
2023-05-10T05:35:11.961Z,302
2023-05-10T05:36:11.956Z,283
2023-05-10T05:37:11.956Z,283
2023-05-10T05:38:11.957Z,283
2023-05-10T05:39:11.973Z,283
2023-05-10T05:40:11.956Z,283
2023-05-10T05:41:11.984Z,285
2023-05-10T05:42:11.957Z,285
2023-05-10T05:43:11.965Z,285
2023-05-10T05:44:11.965Z,285
2023-05-10T05:45:11.974Z,285
2023-05-10T05:46:11.987Z,306
2023-05-10T05:47:11.980Z,306
2023-05-10T05:48:11.967Z,306
2023-05-10T05:49:11.972Z,306
2023-05-10T05:50:11.998Z,306
2023-05-10T05:51:11.970Z,327
2023-05-10T05:52:11.969Z,327
2023-05-10T05:53:11.976Z,327
2023-05-10T05:54:11.976Z,327
2023-05-10T05:55:11.974Z,327
2023-05-10T05:56:11.975Z,319
2023-05-10T05:57:12.030Z,319
2023-05-10T05:58:11.984Z,319
2023-05-10T05:59:11.979Z,319
2023-05-10T06:00:11.979Z,319
2023-05-10T06:01:11.981Z,336
2023-05-10T06:02:12.002Z,336
2023-05-10T06:03:12.049Z,336
2023-05-10T06:04:12.019Z,336
2023-05-10T06:05:11.987Z,336
2023-05-10T06:06:11.992Z,373
2023-05-10T06:07:12.000Z,373
2023-05-10T06:08:12.004Z,373
2023-05-10T06:09:12.000Z,373
2023-05-10T06:10:12.009Z,373
2023-05-10T06:11:11.994Z,424
2023-05-10T06:12:11.995Z,424
2023-05-10T06:13:12.039Z,424
2023-05-10T06:14:12.004Z,424
2023-05-10T06:15:11.996Z,424
2023-05-10T06:16:12.025Z,434
2023-05-10T06:17:11.997Z,434
2023-05-10T06:18:12.045Z,434
2023-05-10T06:19:12.001Z,434
2023-05-10T06:20:11.999Z,434
2023-05-10T06:21:11.998Z,468
2023-05-10T06:22:12.015Z,468
2023-05-10T06:23:12.008Z,468
2023-05-10T06:24:12.010Z,468
2023-05-10T06:25:12.004Z,468
2023-05-10T06:26:12.009Z,524
2023-05-10T06:27:12.036Z,524
2023-05-10T06:28:12.008Z,524
2023-05-10T06:29:12.042Z,524
2023-05-10T06:30:13.145Z,524
2023-05-10T06:31:12.031Z,604
2023-05-10T06:32:12.011Z,604
2023-05-10T06:33:12.036Z,604
2023-05-10T06:34:12.008Z,604
2023-05-10T06:35:12.012Z,604
2023-05-10T06:36:12.018Z,678
2023-05-10T06:37:12.013Z,678
2023-05-10T06:38:12.014Z,678
2023-05-10T06:39:12.016Z,678
2023-05-10T06:40:12.016Z,678
2023-05-10T06:41:12.015Z,695
2023-05-10T06:42:12.023Z,695
2023-05-10T06:43:12.022Z,695
2023-05-10T06:44:12.024Z,695
2023-05-10T06:45:12.342Z,695
2023-05-10T06:46:12.075Z,745
2023-05-10T06:47:12.017Z,745
2023-05-10T06:48:12.044Z,745
2023-05-10T06:49:12.021Z,745
2023-05-10T06:50:12.027Z,745
2023-05-10T06:51:12.037Z,838
2023-05-10T06:52:12.038Z,838
2023-05-10T06:53:12.027Z,838
2023-05-10T06:54:12.028Z,838
2023-05-10T06:55:12.042Z,838
2023-05-10T06:56:12.036Z,856
2023-05-10T06:57:19.742Z,856
2023-05-10T06:58:12.027Z,856
2023-05-10T06:59:12.078Z,856
2023-05-10T07:00:12.059Z,856
2023-05-10T07:01:12.137Z,796
2023-05-10T07:02:12.086Z,796
2023-05-10T07:03:12.134Z,796
2023-05-10T07:04:12.041Z,796
2023-05-10T07:05:12.033Z,796
2023-05-10T07:06:18.607Z,782
2023-05-10T07:07:12.041Z,782
2023-05-10T07:08:12.040Z,782
2023-05-10T07:09:12.049Z,782
2023-05-10T07:10:12.044Z,782
2023-05-10T07:11:12.043Z,766
2023-05-10T07:12:13.508Z,766
2023-05-10T07:13:12.116Z,766
2023-05-10T07:14:12.044Z,766
2023-05-10T07:15:12.042Z,766
2023-05-10T07:16:12.074Z,848
2023-05-10T07:17:12.179Z,848
2023-05-10T07:18:12.103Z,848
2023-05-10T07:19:12.048Z,848
2023-05-10T07:20:12.049Z,848
2023-05-10T07:21:12.105Z,930
2023-05-10T07:22:12.048Z,930
2023-05-10T07:23:12.050Z,930
2023-05-10T07:24:12.052Z,930
2023-05-10T07:25:12.051Z,930
2023-05-10T07:26:12.048Z,1117
2023-05-10T07:27:12.059Z,1117
2023-05-10T07:28:12.050Z,1117
2023-05-10T07:29:12.055Z,1117
2023-05-10T07:30:12.058Z,1117
2023-05-10T07:31:12.051Z,1260
2023-05-10T07:32:12.128Z,1260
2023-05-10T07:33:12.107Z,1260
2023-05-10T07:34:12.058Z,1260
2023-05-10T07:35:12.060Z,1260
2023-05-10T07:36:12.066Z,1388
2023-05-10T07:37:12.058Z,1388
2023-05-10T07:38:12.057Z,1388
2023-05-10T07:39:16.211Z,1388
2023-05-10T07:40:12.073Z,1388
2023-05-10T07:41:12.059Z,1554
2023-05-10T07:42:12.055Z,1554
2023-05-10T07:43:12.071Z,1554
2023-05-10T07:44:12.055Z,1554
2023-05-10T07:45:12.057Z,1554
2023-05-10T07:46:12.075Z,1624
2023-05-10T07:47:12.059Z,1624
2023-05-10T07:48:12.059Z,1624
2023-05-10T07:49:12.096Z,1624
2023-05-10T07:50:12.061Z,1624
2023-05-10T07:51:12.059Z,1629
2023-05-10T07:52:12.080Z,1629
2023-05-10T07:53:12.059Z,1629
2023-05-10T07:54:12.061Z,1629
2023-05-10T07:55:12.074Z,1629
2023-05-10T07:56:12.068Z,1549
2023-05-10T07:57:12.056Z,1549
2023-05-10T07:58:12.065Z,1549
2023-05-10T07:59:12.768Z,1549
2023-05-10T08:00:12.059Z,1549
2023-05-10T08:01:12.067Z,1449
2023-05-10T08:02:12.110Z,1449
2023-05-10T08:03:12.245Z,1449
2023-05-10T08:04:12.087Z,1449
2023-05-10T08:05:12.084Z,1449
2023-05-10T08:06:12.070Z,1350
2023-05-10T08:07:12.068Z,1350
2023-05-10T08:08:12.073Z,1350
2023-05-10T08:09:12.068Z,1350
2023-05-10T08:10:12.108Z,1350
2023-05-10T08:11:12.064Z,1275
2023-05-10T08:12:12.059Z,1275
2023-05-10T08:13:12.059Z,1275
2023-05-10T08:14:12.064Z,1275
2023-05-10T08:15:12.061Z,1275
2023-05-10T08:16:12.113Z,1276
2023-05-10T08:17:12.064Z,1276
2023-05-10T08:18:12.096Z,1276
2023-05-10T08:19:12.100Z,1276
2023-05-10T08:20:12.070Z,1276
2023-05-10T08:21:12.092Z,1279
2023-05-10T08:22:12.074Z,1279
2023-05-10T08:23:12.063Z,1279
2023-05-10T08:24:12.068Z,1279
2023-05-10T08:25:12.069Z,1279
2023-05-10T08:26:12.070Z,1188
2023-05-10T08:27:12.067Z,1188
2023-05-10T08:28:12.126Z,1188
2023-05-10T08:29:12.085Z,1188
2023-05-10T08:30:12.071Z,1188
2023-05-10T08:31:12.084Z,1142
2023-05-10T08:32:12.081Z,1142
2023-05-10T08:33:12.110Z,1142
2023-05-10T08:34:12.077Z,1142
2023-05-10T08:35:12.081Z,1142
2023-05-10T08:36:12.075Z,1159
2023-05-10T08:37:12.234Z,1159
2023-05-10T08:38:12.079Z,1159
2023-05-10T08:39:19.402Z,1159
2023-05-10T08:40:12.079Z,1159
2023-05-10T08:41:12.079Z,1282
2023-05-10T08:42:12.077Z,1282
2023-05-10T08:43:12.088Z,1282
2023-05-10T08:44:12.083Z,1282
2023-05-10T08:45:12.087Z,1282
2023-05-10T08:46:12.120Z,1385
2023-05-10T08:47:12.134Z,1385
2023-05-10T08:48:12.091Z,1385
2023-05-10T08:49:12.092Z,1385
2023-05-10T08:50:12.089Z,1385
2023-05-10T08:51:12.102Z,1330
2023-05-10T08:52:12.093Z,1330
2023-05-10T08:53:12.172Z,1330
2023-05-10T08:54:12.108Z,1330
2023-05-10T08:55:12.098Z,1330
2023-05-10T08:56:12.100Z,1186
2023-05-10T08:57:12.105Z,1186
2023-05-10T08:58:12.113Z,1186
2023-05-10T08:59:12.103Z,1186
2023-05-10T09:00:12.099Z,1186
2023-05-10T09:01:12.178Z,1160
2023-05-10T09:02:12.111Z,1160
2023-05-10T09:03:12.131Z,1160
2023-05-10T09:04:12.194Z,1160
2023-05-10T09:05:12.125Z,1160
2023-05-10T09:06:12.115Z,1216
2023-05-10T09:07:12.114Z,1216
2023-05-10T09:08:12.123Z,1216
2023-05-10T09:09:12.143Z,1216
2023-05-10T09:10:12.121Z,1216
2023-05-10T09:11:12.115Z,1309
2023-05-10T09:12:12.137Z,1309
2023-05-10T09:13:12.117Z,1309
2023-05-10T09:14:12.117Z,1309
2023-05-10T09:15:12.120Z,1309
2023-05-10T09:16:20.891Z,1425
2023-05-10T09:17:12.166Z,1425
2023-05-10T09:18:12.135Z,1425
2023-05-10T09:19:12.150Z,1425
2023-05-10T09:20:12.118Z,1425
2023-05-10T09:21:12.124Z,1536
2023-05-10T09:22:12.124Z,1536
2023-05-10T09:23:12.121Z,1536
2023-05-10T09:24:12.132Z,1536
2023-05-10T09:25:12.154Z,1536
2023-05-10T09:26:12.131Z,1632
2023-05-10T09:27:12.126Z,1632
2023-05-10T09:28:12.128Z,1632
2023-05-10T09:29:12.132Z,1632
2023-05-10T09:30:12.136Z,1632
2023-05-10T09:31:12.136Z,1692
2023-05-10T09:32:13.754Z,1692
2023-05-10T09:33:12.127Z,1692
2023-05-10T09:34:12.133Z,1692
2023-05-10T09:35:12.152Z,1692
2023-05-10T09:36:12.130Z,1708
2023-05-10T09:37:12.128Z,1708
2023-05-10T09:38:12.132Z,1708
2023-05-10T09:39:12.140Z,1708
2023-05-10T09:40:12.135Z,1708
2023-05-10T09:41:12.157Z,1708
2023-05-10T09:42:12.170Z,1708
2023-05-10T09:43:12.160Z,1708
2023-05-10T09:44:12.140Z,1708
2023-05-10T09:45:12.141Z,1708
2023-05-10T09:46:12.187Z,1675
2023-05-10T09:47:12.139Z,1675
2023-05-10T09:48:12.144Z,1675
2023-05-10T09:49:12.138Z,1675
2023-05-10T09:50:12.138Z,1675
2023-05-10T09:51:12.136Z,1591
2023-05-10T09:52:12.142Z,1591
2023-05-10T09:53:12.138Z,1591
2023-05-10T09:54:12.143Z,1591
2023-05-10T09:55:12.142Z,1591
2023-05-10T09:56:12.154Z,1633
2023-05-10T09:57:12.165Z,1633
2023-05-10T09:58:12.146Z,1633
2023-05-10T09:59:12.145Z,1633
2023-05-10T10:00:12.142Z,1633
2023-05-10T10:01:12.173Z,1699
2023-05-10T10:02:12.149Z,1699
2023-05-10T10:03:12.173Z,1699
2023-05-10T10:04:12.148Z,1699
2023-05-10T10:05:12.192Z,1699
2023-05-10T10:06:22.835Z,1740
2023-05-10T10:07:12.157Z,1740
2023-05-10T10:08:12.152Z,1740
2023-05-10T10:09:12.172Z,1740
2023-05-10T10:10:12.155Z,1740
2023-05-10T10:11:12.159Z,1771
2023-05-10T10:12:12.155Z,1771
2023-05-10T10:13:12.184Z,1771
2023-05-10T10:14:12.159Z,1771
2023-05-10T10:15:12.490Z,1771
2023-05-10T10:16:12.198Z,1537
2023-05-10T10:17:12.163Z,1537
2023-05-10T10:18:12.163Z,1537
2023-05-10T10:19:12.166Z,1537
2023-05-10T10:20:12.358Z,1537
2023-05-10T10:21:12.167Z,1404
2023-05-10T10:22:12.165Z,1404
2023-05-10T10:23:12.164Z,1404
2023-05-10T10:24:12.166Z,1404
2023-05-10T10:25:12.164Z,1404
2023-05-10T10:26:12.179Z,1569
2023-05-10T10:27:12.171Z,1569
2023-05-10T10:28:12.168Z,1569
2023-05-10T10:29:12.207Z,1569
2023-05-10T10:30:12.170Z,1569
2023-05-10T10:31:12.184Z,1682
2023-05-10T10:32:12.178Z,1682
2023-05-10T10:33:20.449Z,1682
2023-05-10T10:34:12.202Z,1682
2023-05-10T10:35:12.174Z,1682
2023-05-10T10:36:12.184Z,1767
2023-05-10T10:37:12.179Z,1767
2023-05-10T10:38:12.175Z,1767
2023-05-10T10:39:12.178Z,1767
2023-05-10T10:40:12.179Z,1767
2023-05-10T10:41:12.182Z,1852
2023-05-10T10:42:12.189Z,1852
2023-05-10T10:43:12.185Z,1852
2023-05-10T10:44:12.185Z,1852
2023-05-10T10:45:12.221Z,1852
2023-05-10T10:46:12.230Z,1895
2023-05-10T10:47:12.288Z,1895
2023-05-10T10:48:12.190Z,1895
2023-05-10T10:49:12.183Z,1895
2023-05-10T10:50:12.200Z,1895
2023-05-10T10:51:12.942Z,2020
2023-05-10T10:52:12.196Z,2020
2023-05-10T10:53:12.220Z,2020
2023-05-10T10:54:12.220Z,2020
2023-05-10T10:55:12.212Z,2020
2023-05-10T10:56:12.198Z,2053
2023-05-10T10:57:12.196Z,2053
2023-05-10T10:58:12.195Z,2053
2023-05-10T10:59:12.196Z,2053
2023-05-10T11:00:12.197Z,2053
2023-05-10T11:01:12.263Z,2285
2023-05-10T11:02:12.200Z,2285
2023-05-10T11:03:12.240Z,2285
2023-05-10T11:04:12.231Z,2285
2023-05-10T11:05:12.223Z,2285
2023-05-10T11:06:12.214Z,2476
2023-05-10T11:07:12.205Z,2476
2023-05-10T11:08:12.203Z,2476
2023-05-10T11:09:12.205Z,2476
2023-05-10T11:10:12.204Z,2476
2023-05-10T11:11:12.204Z,2367
2023-05-10T11:12:12.216Z,2367
2023-05-10T11:13:12.212Z,2367
2023-05-10T11:14:12.207Z,2367
2023-05-10T11:15:12.213Z,2367
2023-05-10T11:16:12.235Z,2247
2023-05-10T11:17:12.251Z,2207
2023-05-10T11:18:12.220Z,2203
2023-05-10T11:19:12.224Z,2130
2023-05-10T11:20:12.206Z,2130
2023-05-10T11:21:12.212Z,2130
2023-05-10T11:22:12.210Z,2130
2023-05-10T11:23:12.217Z,2130
2023-05-10T11:24:12.216Z,2039
2023-05-10T11:25:12.218Z,2039
2023-05-10T11:26:12.220Z,2039
2023-05-10T11:27:12.217Z,2039
2023-05-10T11:28:12.229Z,2039
2023-05-10T11:29:12.217Z,2158
2023-05-10T11:30:12.219Z,2158
2023-05-10T11:31:12.259Z,2158
2023-05-10T11:32:12.222Z,2158
2023-05-10T11:33:12.278Z,2158
2023-05-10T11:34:12.228Z,2136
2023-05-10T11:35:12.221Z,2136
2023-05-10T11:36:12.226Z,2136
2023-05-10T11:37:12.231Z,2136
2023-05-10T11:38:12.227Z,2136
2023-05-10T11:39:12.229Z,2221
2023-05-10T11:40:12.231Z,2221
2023-05-10T11:41:12.229Z,2221
2023-05-10T11:42:12.239Z,2221
2023-05-10T11:43:12.235Z,2221
2023-05-10T11:44:12.236Z,2333
2023-05-10T11:45:12.236Z,2333
2023-05-10T11:46:12.274Z,2368
2023-05-10T11:47:12.236Z,2368
2023-05-10T11:48:12.273Z,2368
2023-05-10T11:49:12.269Z,2368
2023-05-10T11:50:12.238Z,2368
2023-05-10T11:51:12.237Z,2430
2023-05-10T11:52:12.238Z,2430
2023-05-10T11:53:12.239Z,2430
2023-05-10T11:54:12.330Z,2430
2023-05-10T11:55:12.240Z,2430
2023-05-10T11:56:12.242Z,2624
2023-05-10T11:57:12.242Z,2624
2023-05-10T11:58:12.241Z,2624
2023-05-10T11:59:12.239Z,2624
2023-05-10T12:00:12.243Z,2624
2023-05-10T12:01:12.244Z,2511
2023-05-10T12:02:12.247Z,2511
2023-05-10T12:03:12.310Z,2511
2023-05-10T12:04:12.311Z,2511
2023-05-10T12:05:12.276Z,2511
2023-05-10T12:06:12.248Z,2321
2023-05-10T12:07:12.251Z,2321
2023-05-10T12:08:12.251Z,2321
2023-05-10T12:09:12.252Z,2321
2023-05-10T12:10:12.257Z,2321
2023-05-10T12:11:12.252Z,2184
2023-05-10T12:12:12.256Z,2184
2023-05-10T12:13:12.252Z,2184
2023-05-10T12:14:12.259Z,2184
2023-05-10T12:15:12.255Z,2184
2023-05-10T12:16:12.328Z,1866
2023-05-10T12:17:12.253Z,1866
2023-05-10T12:18:12.320Z,1866
2023-05-10T12:19:12.314Z,1866
2023-05-10T12:20:12.283Z,1866
2023-05-10T12:21:12.305Z,1573
2023-05-10T12:22:12.260Z,1573
2023-05-10T12:23:12.267Z,1573
2023-05-10T12:24:12.263Z,1573
2023-05-10T12:25:12.268Z,1573
2023-05-10T12:26:12.273Z,1459
2023-05-10T12:27:12.265Z,1459
2023-05-10T12:28:12.266Z,1459
2023-05-10T12:29:12.266Z,1459
2023-05-10T12:30:12.325Z,1459
2023-05-10T12:31:12.267Z,1503
2023-05-10T12:32:12.317Z,1503
2023-05-10T12:33:12.368Z,1503
2023-05-10T12:34:12.271Z,1503
2023-05-10T12:35:12.268Z,1503
2023-05-10T12:36:12.268Z,1491
2023-05-10T12:37:12.300Z,1491
2023-05-10T12:38:12.268Z,1491
2023-05-10T12:39:12.271Z,1491
2023-05-10T12:40:12.354Z,1491
2023-05-10T12:41:12.346Z,1286
2023-05-10T12:42:12.298Z,1286
2023-05-10T12:43:12.287Z,1286
2023-05-10T12:44:12.279Z,1286
2023-05-10T12:45:12.276Z,1286
2023-05-10T12:46:12.303Z,1262
2023-05-10T12:47:12.276Z,1262
2023-05-10T12:48:12.296Z,1262
2023-05-10T12:49:12.285Z,1262
2023-05-10T12:50:12.326Z,1262
2023-05-10T12:51:12.276Z,1245
2023-05-10T12:52:12.282Z,1245
2023-05-10T12:53:12.308Z,1245
2023-05-10T12:54:12.277Z,1245
2023-05-10T12:55:12.284Z,1245
2023-05-10T12:56:12.286Z,1095
2023-05-10T12:57:12.278Z,1095
2023-05-10T12:58:13.999Z,1095
2023-05-10T12:59:12.282Z,1095
2023-05-10T13:00:12.285Z,1095
2023-05-10T13:01:12.322Z,1031
2023-05-10T13:02:12.286Z,1031
2023-05-10T13:03:12.289Z,1031
2023-05-10T13:04:12.356Z,1031
2023-05-10T13:05:12.357Z,1031
2023-05-10T13:06:12.289Z,1041
2023-05-10T13:07:12.300Z,1041
2023-05-10T13:08:12.292Z,1041
2023-05-10T13:09:12.325Z,1041
2023-05-10T13:10:12.307Z,1041
2023-05-10T13:11:12.295Z,1081
2023-05-10T13:12:12.294Z,1081
2023-05-10T13:13:12.298Z,1081
2023-05-10T13:14:12.300Z,1081
2023-05-10T13:15:12.297Z,1081
2023-05-10T13:16:12.299Z,1115
2023-05-10T13:17:12.330Z,1115
2023-05-10T13:18:12.369Z,1115
2023-05-10T13:19:12.357Z,1115
2023-05-10T13:20:12.310Z,1115
2023-05-10T13:21:12.319Z,1097
2023-05-10T13:22:12.305Z,1097
2023-05-10T13:23:12.324Z,1097
2023-05-10T13:24:12.313Z,1097
2023-05-10T13:25:12.347Z,1097
2023-05-10T13:26:12.321Z,1081
2023-05-10T13:27:12.312Z,1081
2023-05-10T13:28:12.322Z,1081
2023-05-10T13:29:12.332Z,1081
2023-05-10T13:30:12.326Z,1081
2023-05-10T13:31:12.353Z,1067
2023-05-10T13:32:12.318Z,1067
2023-05-10T13:33:12.318Z,1067
2023-05-10T13:34:12.320Z,1067
2023-05-10T13:35:12.316Z,1067
2023-05-10T13:36:12.321Z,1047
2023-05-10T13:37:12.320Z,1047
2023-05-10T13:38:12.319Z,1047
2023-05-10T13:39:12.321Z,1047
2023-05-10T13:40:12.328Z,1047
2023-05-10T13:41:12.347Z,997
2023-05-10T13:42:12.321Z,997
2023-05-10T13:43:12.323Z,997
2023-05-10T13:44:12.329Z,997
2023-05-10T13:45:12.327Z,997
2023-05-10T13:46:12.340Z,932
2023-05-10T13:47:12.341Z,932
2023-05-10T13:48:12.349Z,932
2023-05-10T13:49:12.332Z,932
2023-05-10T13:50:12.328Z,932
2023-05-10T13:51:12.329Z,902